Flight Track Log - Related Links

Times and Time Zones

All times are in EDT time to prevent confusion due to time zone crossing. See the DAL8882 flight status page for this flight to view local times or setup timezone preferences in your user account.

Time Position Orientation Groundspeed Altitude Reporting Facility
EDT Latitude Longitude Course Direction KTS MPH feet Rate Location/Type
Wed 11:08:37 PM 37.6861 -122.3694 358° North 236 272 4,200  Level Oakland Center
Wed 11:09:38 PM 37.6758 -122.4381 259° West 251 289 7,900 3,541 Climbing Oakland Center
Wed 11:10:39 PM 37.5981 -122.4650 195° South 287 330 11,400 2,607 Climbing Oakland Center
Wed 11:11:40 PM 37.5353 -122.3842 134° Southeast 351 404 13,200 2,390 Climbing Oakland Center
Wed 11:12:42 PM 37.5081 -122.2536 105° East 389 448 16,300 3,073 Climbing Oakland Center
Wed 11:13:43 PM 37.4761 -122.1197 107° East 400 460 19,500 2,902 Climbing Oakland Center
Wed 11:14:44 PM 37.4425 -121.9803 107° East 416 479 22,200 2,780 Climbing Oakland Center
Wed 11:15:46 PM 37.3983 -121.8069 108° East 433 498 25,200 2,341 Climbing Oakland Center
Wed 11:16:47 PM 37.3647 -121.6536 105° East 452 520 27,000 1,869 Climbing Oakland Center
Wed 11:17:48 PM 37.3503 -121.4936 96° East 477 549 29,000 2,164 Climbing Oakland Center
Wed 11:18:49 PM 37.3336 -121.3233 97° East 491 565 31,400 2,244 Climbing Oakland Center
Wed 11:19:51 PM 37.3175 -121.1572 97° East 485 558 33,600 2,195 Climbing Oakland Center
Wed 11:20:52 PM 37.3014 -120.9881 97° East 489 563 35,900 1,672 Climbing Oakland Center
Wed 11:21:53 PM 37.2847 -120.8244 97° East 477 549 37,000 541 Climbing Oakland Center
Wed 11:22:54 PM 37.2656 -120.6269 97° East 477 549 37,000  Level Oakland Center
Wed 11:23:56 PM 37.2478 -120.4608 98° East 482 555 37,000  Level Oakland Center
Wed 11:24:57 PM 37.2294 -120.2950 98° East 482 555 37,000  Level Oakland Center
Wed 11:25:58 PM 37.2122 -120.1269 97° East 485 558 37,000  Level Oakland Center
Wed 11:26:59 PM 37.1939 -119.9597 98° East 486 559 37,000  Level Oakland Center
Wed 11:28:00 PM 37.1764 -119.7992 98° East 488 562 37,000  Level Oakland Center
Wed 11:29:02 PM 37.1581 -119.6297 98° East 490 564 37,000  Level Oakland Center
Wed 11:30:03 PM 37.1350 -119.4289 98° East 487 560 37,000  Level Oakland Center
Wed 11:31:04 PM 37.1161 -119.2608 98° East 487 560 37,000  Level Oakland Center
Wed 11:32:05 PM 37.0969 -119.0906 98° East 493 567 37,000  Level Oakland Center
Wed 11:33:07 PM 37.0761 -118.9228 99° East 489 563 37,000  Level Oakland Center
Wed 11:34:08 PM 37.0569 -118.7544 98° East 489 563 37,000  Level Oakland Center
Wed 11:35:09 PM 37.0369 -118.5836 98° East 494 568 37,000  Level Oakland Center
Wed 11:36:10 PM 37.0161 -118.4203 99° East 491 565 37,000  Level Oakland Center
Wed 11:37:12 PM 36.9947 -118.2519 99° East 491 565 37,000  Level Oakland Center
Wed 11:38:13 PM 36.9764 -118.0836 98° East 490 564 37,000 -49 Level Oakland Center
Wed 11:39:14 PM 36.9517 -117.8856 99° East 485 558 36,900 -732 Descending Oakland Center
Wed 11:40:16 PM 36.9294 -117.7189 99° East 487 560 35,500 -1,317 Descending Oakland Center
Wed 11:41:17 PM 36.9069 -117.5500 99° East 493 567 34,200 -1,121 Descending Oakland Center
Wed 11:41:47 PM 36.8903 -117.4853 108° East 497 572 33,800 -1,109 Descending Los Angeles Center
Wed 11:42:49 PM 36.8017 -117.3200 124° Southeast 480 552 32,500 -1,113 Descending Los Angeles Center
Wed 11:43:51 PM 36.7283 -117.1900 125° Southeast 473 544 31,500 -1,016 Descending Los Angeles Center
Wed 11:44:53 PM 36.6547 -117.0547 124° Southeast 472 543 30,400 -968 Descending Los Angeles Center
Wed 11:45:55 PM 36.5958 -116.9069 116° Southeast 476 548 29,500 -927 Descending Los Angeles Center
Wed 11:46:56 PM 36.5386 -116.7603 116° Southeast 469 540 28,500 -1,024 Descending Los Angeles Center
Wed 11:47:58 PM 36.4833 -116.6147 115° Southeast 472 543 27,400 -1,452 Descending Los Angeles Center
Wed 11:49:00 PM 36.4261 -116.4672 116° Southeast 474 545 25,500 -2,323 Descending Los Angeles Center
Wed 11:50:02 PM 36.3703 -116.3253 116° Southeast 466 536 22,600 -3,073 Descending Los Angeles Center
Wed 11:51:03 PM 36.3056 -116.1606 116° Southeast 444 511 19,200 -3,196 Descending Los Angeles Center
Wed 11:51:34 PM 36.2772 -116.0928 117° Southeast 434 499 17,700 -2,419 Descending Los Angeles Center
Wed 11:52:05 PM 36.2558 -116.0344 114° Southeast 412 474 16,700 -1,055 Descending Los Angeles Center
Wed 11:53:05 PM 36.2119 -115.9247 116° Southeast 361 415 16,100 -744 Descending Los Angeles Center
Wed 11:54:06 PM 36.1742 -115.8172 113° Southeast 316 364 15,200 -934 Descending Los Angeles Center
Wed 11:55:07 PM 36.1419 -115.7158 111° Southeast 315 362 14,200 -931 Descending Los Angeles Center
Wed 11:56:02 PM 36.1117 -115.6247 112° Southeast 311 358 13,400 -891 Descending Los Angeles Center
Wed 11:57:15 PM 36.0742 -115.5092 112° Southeast 307 353 12,300 -945 Descending Los Angeles Center
Wed 11:58:09 PM 36.0469 -115.4225 111° Southeast 309 356 11,400 -991 Descending Los Angeles Center
Wed 11:59:10 PM 36.0269 -115.3200 104° East 282 325 10,400 -984 Descending Los Angeles Center
Thu 12:00:17 AM 36.0211 -115.2236 94° East 269 310 9,300 -891 Descending Los Angeles Center
Thu 12:01:18 AM 36.0133 -115.1383 96° East 247 284 8,500 -639 Descending Los Angeles Center
Thu 12:02:19 AM 36.0089 -115.0575 94° East 219 252 8,000 -393 Descending Los Angeles Center
Thu 12:03:20 AM 36.0042 -114.9872 95° East 204 235 7,700 -606 Descending Los Angeles Center
Thu 12:04:08 AM 36.0022 -114.9292 92° East 201 231 6,900 -923 Descending Los Angeles Center
Thu 12:04:38 AM 35.9997 -114.8972 96° East 204 235 6,500 -295 Descending Los Angeles Center
Thu 12:05:09 AM 36.0100 -114.8656 68° East 204 235 6,600 97 Climbing Los Angeles Center
Thu 12:05:40 AM 36.0333 -114.8567 17° North 209 241 6,600  Level Los Angeles Center
Thu 12:06:16 AM 36.0661 -114.8656 348° North 198 228 6,600 -742 Level Los Angeles Center
Thu 12:07:17 AM 36.0731 -114.9269 278° West 186 214 5,400 -1,190 Descending Los Angeles Center
Thu 12:08:12 AM 36.0739 -114.9800 271° West 175 201 4,300 -1,023 Descending Los Angeles Center
Thu 12:08:45 AM 36.0733 -115.0036 268° West 184 212 3,900 -830 Descending Los Angeles Center
Thu 12:09:46 AM 36.0733 -115.0644 270° West 181 208 3,000 -756 Descending Los Angeles Center
Thu 12:11:00 AM 36.0739 -115.1189 271° West 152 175 2,200 -649 Descending Los Angeles Center
Thu 12:12:00 AM 36.0667 -115.1500 270° West  Level FlightAware Approximate

Login

Don't have an account? Register now (free) for customized features, flight alerts, and more!